Time;durP1;ratioP1;P1;durP2;ratioP2;P2;SDS_P1;SDS_P2;PMS_P1;PMS_P2;Temp;Humidity;BMP_temperature;BMP_pressure;BME280_temperature;BME280_humidity;BME280_pressure;Samples;Min_cycle;Max_cycle;Signal;HPM_P1;HPM_P2
2022/07/02 00:01:49;;;;;;;3.83;2.05;;;15.50;99.90;;;;;;5042937;28;20085;-78
2022/07/02 00:04:27;;;;;;;4.15;2.13;;;15.50;99.90;;;;;;5039823;28;20057;-79
2022/07/02 00:06:53;;;;;;;5.60;2.00;;;15.50;99.90;;;;;;5040011;28;20041;-78
2022/07/02 00:09:19;;;;;;;3.17;2.00;;;15.50;99.90;;;;;;5040919;28;20513;-78
2022/07/02 00:11:47;;;;;;;5.72;2.17;;;15.50;99.90;;;;;;5040617;28;20048;-78
2022/07/02 00:14:14;;;;;;;5.32;2.00;;;15.50;99.90;;;;;;5041206;28;20041;-78
2022/07/02 00:16:46;;;;;;;4.97;2.20;;;15.40;99.90;;;;;;5052712;28;20684;-78
2022/07/02 00:19:15;;;;;;;4.68;2.17;;;15.40;99.90;;;;;;5039067;28;20467;-77
2022/07/02 00:21:41;;;;;;;2.75;2.22;;;15.30;99.90;;;;;;5043131;28;20044;-78
2022/07/02 00:24:07;;;;;;;5.10;2.10;;;15.30;99.90;;;;;;5040416;28;20037;-78
2022/07/02 00:26:37;;;;;;;3.70;1.92;;;15.20;99.90;;;;;;5043866;28;20052;-77
2022/07/02 00:29:06;;;;;;;5.05;2.10;;;15.20;99.90;;;;;;5040192;28;20040;-78
2022/07/02 00:31:37;;;;;;;5.38;2.10;;;15.20;99.90;;;;;;5042831;28;20133;-78
2022/07/02 00:34:03;;;;;;;5.82;2.15;;;15.10;99.90;;;;;;5025959;28;20060;-78
2022/07/02 00:36:31;;;;;;;3.10;2.00;;;15.10;99.90;;;;;;5041996;28;20067;-78
2022/07/02 00:38:58;;;;;;;4.78;2.15;;;15.10;99.90;;;;;;5035712;28;20029;-78
2022/07/02 00:41:25;;;;;;;3.63;2.30;;;15.00;99.90;;;;;;5040402;28;20071;-78
2022/07/02 00:43:51;;;;;;;3.90;2.40;;;15.00;99.90;;;;;;5039988;28;20041;-78
2022/07/02 00:46:17;;;;;;;4.28;2.40;;;14.90;99.90;;;;;;5051531;28;20049;-78
2022/07/02 00:48:44;;;;;;;6.40;2.45;;;14.90;99.90;;;;;;5041742;28;20048;-78
2022/07/02 00:51:10;;;;;;;4.45;2.35;;;14.90;99.90;;;;;;5046975;28;20048;-78
2022/07/02 00:53:36;;;;;;;3.70;2.40;;;14.90;99.90;;;;;;5042262;28;20048;-78
2022/07/02 00:56:01;;;;;;;6.68;2.92;;;14.90;99.90;;;;;;5040180;28;20406;-77
2022/07/02 00:58:30;;;;;;;6.15;3.03;;;14.80;99.90;;;;;;5040843;28;20029;-77
2022/07/02 01:00:56;;;;;;;4.93;2.60;;;14.80;99.90;;;;;;5022963;28;20038;-77
2022/07/02 01:03:23;;;;;;;7.00;3.17;;;14.70;99.90;;;;;;5039791;28;20045;-78
2022/07/02 01:05:51;;;;;;;6.90;3.20;;;14.70;99.90;;;;;;5042136;28;20082;-78
2022/07/02 01:11:03;;;;;;;4.63;2.70;;;14.60;99.90;;;;;;5040774;28;20090;-78
2022/07/02 01:13:32;;;;;;;9.77;3.10;;;14.60;99.90;;;;;;5026582;28;20029;-78
2022/07/02 01:15:59;;;;;;;6.50;2.80;;;14.60;99.90;;;;;;5038885;28;20525;-78
2022/07/02 01:18:24;;;;;;;5.97;2.72;;;14.50;99.90;;;;;;5045893;28;20037;-78
2022/07/02 01:20:50;;;;;;;5.80;2.80;;;14.50;99.90;;;;;;5042967;28;20037;-78
2022/07/02 01:23:15;;;;;;;5.55;2.80;;;14.50;99.90;;;;;;5040756;28;20040;-78
2022/07/02 01:25:49;;;;;;;6.28;2.90;;;14.40;99.90;;;;;;5041847;28;20037;-78
2022/07/02 01:28:15;;;;;;;;;;;14.40;99.90;;;;;;5040834;28;20380;-78
2022/07/02 01:30:40;;;;;;;3.00;2.40;;;14.40;99.90;;;;;;5040669;28;19924;-78
2022/07/02 01:33:06;;;;;;;4.78;2.80;;;14.30;99.90;;;;;;5039246;28;20041;-77
2022/07/02 01:35:31;;;;;;;5.28;2.60;;;14.30;99.90;;;;;;5041268;28;20186;-78
2022/07/02 01:37:57;;;;;;;5.57;3.08;;;14.30;99.90;;;;;;5039878;28;20045;-77
2022/07/02 01:40:23;;;;;;;4.28;3.00;;;14.30;99.90;;;;;;5043588;28;20033;-78
2022/07/02 01:42:49;;;;;;;5.82;2.80;;;14.30;99.90;;;;;;5046949;28;20036;-78
2022/07/02 01:45:15;;;;;;;8.35;3.20;;;14.20;99.90;;;;;;5044632;28;20095;-78
2022/07/02 01:47:40;;;;;;;5.78;2.88;;;14.10;99.90;;;;;;5042123;28;20110;-78
2022/07/02 01:50:06;;;;;;;7.00;3.25;;;14.10;99.90;;;;;;5028625;28;20498;-78
2022/07/02 01:52:32;;;;;;;5.30;3.03;;;14.20;99.90;;;;;;5044009;28;20044;-78
2022/07/02 01:54:58;;;;;;;6.30;3.15;;;14.20;99.90;;;;;;5043286;28;20037;-78
2022/07/02 01:57:23;;;;;;;5.20;2.83;;;14.10;99.90;;;;;;5042712;28;20100;-78
2022/07/02 01:59:49;;;;;;;7.78;3.20;;;14.10;99.90;;;;;;5045639;28;20064;-78
2022/07/02 02:02:15;;;;;;;5.90;3.30;;;14.10;99.90;;;;;;5043574;28;20509;-78
2022/07/02 02:04:41;;;;;;;4.43;3.00;;;14.10;99.90;;;;;;5042078;28;20604;-78
2022/07/02 02:07:07;;;;;;;7.65;3.00;;;14.10;99.90;;;;;;5047028;28;20045;-78
2022/07/02 02:09:32;;;;;;;4.32;2.83;;;14.00;99.90;;;;;;5044223;28;20034;-78
2022/07/02 02:11:58;;;;;;;6.07;2.90;;;14.00;99.90;;;;;;5041701;28;20040;-78
2022/07/02 02:14:24;;;;;;;6.95;3.05;;;14.00;99.90;;;;;;5042901;28;20047;-79
2022/07/02 02:16:50;;;;;;;5.35;2.78;;;13.90;99.90;;;;;;5027357;28;20045;-78
2022/07/02 02:19:16;;;;;;;7.00;2.63;;;13.90;99.90;;;;;;5042887;28;20045;-78
2022/07/02 02:21:41;;;;;;;6.50;3.00;;;13.90;99.90;;;;;;5043047;28;20052;-78
2022/07/02 02:24:07;;;;;;;4.82;2.95;;;13.80;99.90;;;;;;5041660;28;20033;-79
2022/07/02 02:26:33;;;;;;;5.78;3.00;;;13.80;99.90;;;;;;5026503;28;20048;-78
2022/07/02 02:28:58;;;;;;;6.63;3.10;;;13.80;99.90;;;;;;5042721;28;20044;-78
2022/07/02 02:31:24;;;;;;;5.57;2.90;;;13.80;99.90;;;;;;5043782;28;20999;-78
2022/07/02 02:33:50;;;;;;;7.60;2.92;;;13.80;99.90;;;;;;5043226;28;20037;-78
2022/07/02 02:36:16;;;;;;;6.10;3.10;;;13.70;99.90;;;;;;5042569;28;20037;-78
2022/07/02 02:38:41;;;;;;;9.40;3.15;;;13.70;99.90;;;;;;5043975;28;20048;-78
2022/07/02 02:41:09;;;;;;;6.70;3.10;;;13.70;99.90;;;;;;5045003;28;20041;-79
2022/07/02 02:43:35;;;;;;;6.45;3.00;;;13.60;99.90;;;;;;5026711;28;20065;-78
2022/07/02 02:46:02;;;;;;;5.93;2.90;;;13.60;99.90;;;;;;5055160;28;20041;-78
2022/07/02 02:48:28;;;;;;;4.57;2.92;;;13.60;99.90;;;;;;5042680;28;20045;-78
2022/07/02 02:50:54;;;;;;;7.60;3.15;;;13.60;99.90;;;;;;5038292;28;20120;-79
2022/07/02 02:53:19;;;;;;;5.30;3.40;;;13.60;99.90;;;;;;5045992;28;20498;-78
2022/07/02 02:55:45;;;;;;;4.30;2.90;;;13.60;99.90;;;;;;5046615;28;20048;-78
2022/07/02 02:58:10;;;;;;;5.25;3.10;;;13.60;99.90;;;;;;5042697;28;20033;-78
2022/07/02 03:00:36;;;;;;;5.63;3.10;;;13.60;99.90;;;;;;5044747;28;20044;-78
2022/07/02 03:03:02;;;;;;;7.03;3.50;;;13.50;99.90;;;;;;5043175;28;20435;-79
2022/07/02 03:05:27;;;;;;;7.25;3.40;;;13.50;99.90;;;;;;5045773;28;20550;-79
2022/07/02 03:07:53;;;;;;;9.38;3.00;;;13.50;99.90;;;;;;5042281;28;20037;-79
2022/07/02 03:10:18;;;;;;;7.75;3.40;;;13.50;99.90;;;;;;5042887;28;20457;-79
2022/07/02 03:12:44;;;;;;;6.78;3.30;;;13.50;99.90;;;;;;5026833;28;20472;-78
2022/07/02 03:15:10;;;;;;;6.10;3.55;;;13.50;99.90;;;;;;5041907;28;20406;-78
2022/07/02 03:17:36;;;;;;;5.90;3.03;;;13.50;99.90;;;;;;5026953;28;20076;-79
2022/07/02 03:20:02;;;;;;;5.93;3.03;;;13.50;99.90;;;;;;5043332;28;20558;-78
2022/07/02 03:22:28;;;;;;;5.07;3.28;;;13.40;99.90;;;;;;5042246;28;20055;-78
2022/07/02 03:24:53;;;;;;;6.25;3.17;;;13.40;99.90;;;;;;5026349;28;20036;-78
2022/07/02 03:27:19;;;;;;;6.38;3.10;;;13.40;99.90;;;;;;5042834;28;20131;-78
2022/07/02 03:29:45;;;;;;;7.88;3.10;;;13.40;99.90;;;;;;5040848;28;20128;-79
2022/07/02 03:32:10;;;;;;;6.55;3.33;;;13.40;99.90;;;;;;5053497;28;20033;-78
2022/07/02 03:34:36;;;;;;;6.35;3.50;;;13.40;99.90;;;;;;5042029;28;20037;-78
2022/07/02 03:37:01;;;;;;;5.70;3.30;;;13.50;99.90;;;;;;5040831;28;20037;-79
2022/07/02 03:39:27;;;;;;;4.93;3.35;;;13.40;99.90;;;;;;5044023;28;20120;-79
2022/07/02 03:41:52;;;;;;;6.15;3.00;;;13.40;99.90;;;;;;5027571;28;20028;-78
2022/07/02 03:44:18;;;;;;;4.10;3.17;;;13.50;99.90;;;;;;5040920;28;20090;-78
2022/07/02 03:46:44;;;;;;;6.13;3.22;;;13.50;99.90;;;;;;5042174;28;20056;-79
2022/07/02 03:49:09;;;;;;;9.27;3.50;;;13.50;99.90;;;;;;5054078;28;20536;-78
2022/07/02 03:51:35;;;;;;;5.97;3.60;;;13.40;99.90;;;;;;5041408;28;20040;-79
2022/07/02 03:54:00;;;;;;;7.50;3.55;;;13.40;99.90;;;;;;5039382;28;20041;-78
2022/07/02 03:56:26;;;;;;;11.88;3.70;;;13.40;99.90;;;;;;5040442;28;20064;-78
2022/07/02 03:58:51;;;;;;;9.13;3.75;;;13.40;99.90;;;;;;5042168;28;20545;-78
2022/07/02 04:01:17;;;;;;;11.20;3.90;;;13.40;99.90;;;;;;5041212;28;20040;-78
2022/07/02 04:03:43;;;;;;;7.28;3.70;;;13.50;99.90;;;;;;5041633;28;20044;-79
2022/07/02 04:06:08;;;;;;;7.15;3.67;;;13.50;99.90;;;;;;5026222;28;20033;-78
2022/07/02 04:08:34;;;;;;;6.20;3.90;;;13.50;99.90;;;;;;5043167;28;20075;-79
2022/07/02 04:10:59;;;;;;;8.27;3.60;;;13.50;99.90;;;;;;5041304;28;20041;-78
2022/07/02 04:13:25;;;;;;;8.85;3.72;;;13.50;99.90;;;;;;5041387;28;20437;-78
2022/07/02 04:15:51;;;;;;;8.43;4.50;;;13.50;99.90;;;;;;5042810;28;20044;-78
2022/07/02 04:18:18;;;;;;;6.47;3.80;;;13.60;99.90;;;;;;5041199;28;20041;-78
2022/07/02 04:20:43;;;;;;;8.73;4.00;;;13.60;99.90;;;;;;5042728;28;20037;-78
2022/07/02 04:23:09;;;;;;;7.03;4.20;;;13.70;99.90;;;;;;5040589;28;20037;-78
2022/07/02 04:25:35;;;;;;;8.05;4.22;;;13.70;99.90;;;;;;5039430;28;20033;-78
2022/07/02 04:28:01;;;;;;;8.23;4.30;;;13.80;99.90;;;;;;5025647;28;20052;-79
2022/07/02 04:30:26;;;;;;;7.13;4.03;;;13.80;99.90;;;;;;5039168;28;20423;-79
2022/07/02 04:32:52;;;;;;;11.57;4.55;;;13.90;99.90;;;;;;5041435;28;20045;-78
2022/07/02 04:35:17;;;;;;;9.93;4.00;;;14.10;99.90;;;;;;5040588;28;20037;-78
2022/07/02 04:37:43;;;;;;;8.15;4.00;;;14.00;99.90;;;;;;5025718;28;20041;-78
2022/07/02 04:40:09;;;;;;;6.95;4.47;;;14.00;99.90;;;;;;5043234;28;20044;-78
2022/07/02 04:42:34;;;;;;;9.13;4.45;;;14.10;99.90;;;;;;5041255;28;20049;-78
2022/07/02 04:45:00;;;;;;;8.90;4.35;;;14.10;99.90;;;;;;5038552;28;20029;-79
2022/07/02 04:47:25;;;;;;;11.93;5.03;;;14.20;99.90;;;;;;5040627;28;20152;-78
2022/07/02 04:49:51;;;;;;;12.07;4.57;;;14.20;99.90;;;;;;5026016;28;20033;-79
2022/07/02 04:52:17;;;;;;;7.85;5.00;;;14.30;99.90;;;;;;5045283;28;20427;-78
2022/07/02 04:54:42;;;;;;;8.10;4.97;;;14.40;99.90;;;;;;5043101;28;20083;-79
2022/07/02 04:57:08;;;;;;;9.43;5.15;;;14.40;99.90;;;;;;5040194;28;20047;-79
2022/07/02 04:59:34;;;;;;;8.45;5.30;;;14.60;99.90;;;;;;5040260;28;20483;-78
2022/07/02 05:01:59;;;;;;;10.00;5.53;;;14.60;99.90;;;;;;5041020;28;20041;-78
2022/07/02 05:04:25;;;;;;;8.43;5.53;;;14.70;99.90;;;;;;5039510;28;20029;-77
2022/07/02 05:06:50;;;;;;;8.55;5.60;;;14.70;99.90;;;;;;5043322;28;20111;-78
2022/07/02 05:09:16;;;;;;;9.15;5.50;;;14.80;99.90;;;;;;5041805;28;20039;-78
2022/07/02 05:11:41;;;;;;;7.47;5.85;;;15.00;99.90;;;;;;5041586;28;20033;-78
2022/07/02 05:14:07;;;;;;;11.10;6.07;;;15.00;99.90;;;;;;5041857;28;20033;-78
2022/07/02 05:16:34;;;;;;;6.68;5.60;;;15.10;99.90;;;;;;5028372;28;20486;-78
2022/07/02 05:18:59;;;;;;;11.00;6.40;;;15.20;99.90;;;;;;5056794;28;20041;-78
2022/07/02 05:21:25;;;;;;;9.85;6.63;;;15.20;99.90;;;;;;5045131;28;20038;-79
2022/07/02 05:23:50;;;;;;;9.90;5.90;;;15.20;99.90;;;;;;5045951;28;20398;-78
2022/07/02 05:26:16;;;;;;;7.80;5.90;;;15.40;99.90;;;;;;5043609;28;20041;-78
2022/07/02 05:28:42;;;;;;;8.35;5.85;;;15.40;99.90;;;;;;5047447;28;20180;-78
2022/07/02 05:31:07;;;;;;;11.48;6.00;;;15.50;99.90;;;;;;5026763;28;20494;-78
2022/07/02 05:33:33;;;;;;;7.55;5.57;;;15.50;99.90;;;;;;5025422;28;20044;-79
2022/07/02 05:35:58;;;;;;;9.82;5.70;;;15.70;99.90;;;;;;5044038;28;20025;-78
2022/07/02 05:38:24;;;;;;;9.85;5.65;;;15.70;99.90;;;;;;5044238;28;20045;-78
2022/07/02 05:40:49;;;;;;;7.35;5.15;;;15.90;99.90;;;;;;5045819;28;20073;-78
2022/07/02 05:43:15;;;;;;;7.32;4.75;;;15.90;99.90;;;;;;5045463;28;20506;-79
2022/07/02 05:45:40;;;;;;;9.23;5.00;;;16.00;99.90;;;;;;5041526;28;20037;-79
2022/07/02 05:48:06;;;;;;;7.93;4.85;;;16.10;99.90;;;;;;5029434;28;20483;-79
2022/07/02 05:50:32;;;;;;;7.72;4.63;;;16.20;99.90;;;;;;5043694;28;20097;-79
2022/07/02 05:52:57;;;;;;;9.65;4.97;;;16.30;99.90;;;;;;5030973;28;20064;-78
2022/07/02 05:55:23;;;;;;;5.80;4.30;;;16.30;99.90;;;;;;5044951;28;20389;-78
2022/07/02 05:57:48;;;;;;;8.60;4.53;;;16.40;99.90;;;;;;5044407;28;20182;-78
2022/07/02 06:00:14;;;;;;;9.45;4.53;;;16.50;99.90;;;;;;5055122;28;20504;-78
2022/07/02 06:02:40;;;;;;;6.20;4.10;;;16.60;99.90;;;;;;5045216;28;20053;-78
2022/07/02 06:07:50;;;;;;;9.18;3.42;;;16.90;99.90;;;;;;5045833;28;20041;-78
2022/07/02 06:10:18;;;;;;;9.38;3.92;;;17.00;99.90;;;;;;5044718;28;20041;-78
2022/07/02 06:12:49;;;;;;;7.30;3.80;;;17.00;99.90;;;;;;5044320;28;20466;-79
2022/07/02 06:15:19;;;;;;;6.63;3.58;;;17.20;99.90;;;;;;5040526;28;20044;-79
2022/07/02 06:17:45;;;;;;;6.07;3.47;;;17.30;99.90;;;;;;5044032;28;20418;-79
2022/07/02 06:20:12;;;;;;;9.00;3.78;;;17.20;99.90;;;;;;5025321;28;20038;-79
2022/07/02 06:22:38;;;;;;;5.30;3.17;;;17.30;99.90;;;;;;5041718;28;20124;-79
2022/07/02 06:25:05;;;;;;;7.07;3.50;;;17.40;99.90;;;;;;5038941;28;20040;-81
2022/07/02 06:27:33;;;;;;;5.95;3.10;;;17.50;99.90;;;;;;5041049;28;20041;-80
2022/07/02 06:29:59;;;;;;;7.18;3.20;;;17.50;99.90;;;;;;5026331;28;20037;-78
2022/07/02 06:32:25;;;;;;;7.78;3.20;;;17.50;99.90;;;;;;5041358;28;20090;-79
2022/07/02 06:34:50;;;;;;;5.22;2.88;;;17.60;99.90;;;;;;5022938;28;20128;-79
2022/07/02 06:37:16;;;;;;;4.78;2.78;;;17.80;99.90;;;;;;5042757;28;20037;-79
2022/07/02 06:39:41;;;;;;;7.63;3.10;;;17.90;99.90;;;;;;5041851;28;20056;-78
2022/07/02 06:42:19;;;;;;;5.47;2.83;;;17.90;99.90;;;;;;5026470;28;20064;-79
2022/07/02 06:44:46;;;;;;;5.65;2.83;;;18.00;99.90;;;;;;5039904;28;20611;-79
2022/07/02 06:47:15;;;;;;;7.35;2.40;;;18.20;99.90;;;;;;5043632;28;20048;-79
2022/07/02 06:49:41;;;;;;;5.35;2.53;;;18.30;99.90;;;;;;5045825;28;20522;-80
2022/07/02 06:52:08;;;;;;;7.32;2.50;;;18.40;99.90;;;;;;5049556;28;20040;-79
2022/07/02 06:54:34;;;;;;;6.18;2.42;;;18.50;99.90;;;;;;5034994;28;20052;-79
2022/07/02 06:56:59;;;;;;;5.75;2.70;;;18.50;99.90;;;;;;5031990;28;20482;-80
2022/07/02 06:59:25;;;;;;;7.07;2.65;;;18.60;99.90;;;;;;5031757;28;20051;-79
2022/07/02 07:01:51;;;;;;;5.55;2.30;;;18.60;99.90;;;;;;5032133;28;20139;-79
2022/07/02 07:04:16;;;;;;;7.00;2.53;;;18.70;99.90;;;;;;5044772;28;20073;-80
2022/07/02 07:09:16;;;;;;;4.13;2.40;;;18.80;99.90;;;;;;5052124;28;20060;-80
2022/07/02 07:11:42;;;;;;;8.27;2.30;;;18.80;99.90;;;;;;5038048;28;20063;-79
2022/07/02 07:14:07;;;;;;;6.50;2.70;;;18.90;99.90;;;;;;5031634;28;20120;-79
2022/07/02 07:16:33;;;;;;;5.20;2.33;;;18.90;99.90;;;;;;5031359;28;20512;-79
2022/07/02 07:19:04;;;;;;;8.15;2.30;;;19.00;99.90;;;;;;5030508;28;20410;-79
2022/07/02 07:21:31;;;;;;;6.20;2.15;;;19.10;99.90;;;;;;5031495;28;20037;-80
2022/07/02 07:23:57;;;;;;;4.47;2.28;;;19.20;99.90;;;;;;5030888;28;20034;-80
2022/07/02 07:26:22;;;;;;;3.15;1.83;;;19.30;99.90;;;;;;5032010;28;20045;-80
2022/07/02 07:28:48;;;;;;;6.53;2.10;;;19.40;99.90;;;;;;5031445;28;20043;-80
2022/07/02 07:31:16;;;;;;;4.72;2.00;;;19.40;99.90;;;;;;5031216;28;20045;-79
2022/07/02 07:33:41;;;;;;;3.92;2.00;;;19.50;99.90;;;;;;5036719;28;20110;-80
2022/07/02 07:36:07;;;;;;;4.50;1.92;;;19.60;99.90;;;;;;5045315;28;20032;-80
2022/07/02 07:38:32;;;;;;;4.45;1.90;;;19.60;99.90;;;;;;5048627;28;20041;-80
2022/07/02 07:40:59;;;;;;;4.63;2.00;;;19.70;99.90;;;;;;5048477;28;20101;-80
2022/07/02 07:43:24;;;;;;;3.70;1.85;;;19.70;99.90;;;;;;5022860;28;20061;-80
2022/07/02 07:45:50;;;;;;;6.43;2.22;;;19.80;99.90;;;;;;5030967;28;20518;-80
2022/07/02 07:48:15;;;;;;;5.72;1.80;;;19.80;99.90;;;;;;5031800;28;20045;-81
2022/07/02 07:50:41;;;;;;;4.53;1.90;;;19.90;99.90;;;;;;5034803;28;20127;-80
2022/07/02 07:53:06;;;;;;;6.50;1.80;;;19.90;99.90;;;;;;5047813;28;20127;-80
2022/07/02 07:55:32;;;;;;;6.53;2.00;;;19.90;99.90;;;;;;5050556;28;20087;-80
2022/07/02 07:57:57;;;;;;;5.03;1.42;;;19.90;99.90;;;;;;5031234;28;20042;-80
2022/07/02 08:00:23;;;;;;;4.88;1.80;;;20.00;99.90;;;;;;5031635;28;20128;-82
2022/07/02 08:02:49;;;;;;;6.15;1.50;;;20.00;99.90;;;;;;5031131;28;20125;-79
2022/07/02 08:05:15;;;;;;;6.05;1.90;;;20.10;99.90;;;;;;5030263;28;20620;-80
2022/07/02 08:07:41;;;;;;;6.38;1.60;;;20.20;99.90;;;;;;5031416;28;20396;-80
2022/07/02 08:10:10;;;;;;;3.42;1.70;;;20.30;99.90;;;;;;5031176;28;20116;-81
2022/07/02 08:12:36;;;;;;;4.10;1.83;;;20.40;99.90;;;;;;5030859;28;20041;-80
2022/07/02 08:15:02;;;;;;;3.80;1.60;;;20.50;99.90;;;;;;5030668;28;20144;-80
2022/07/02 08:17:29;;;;;;;5.15;1.40;;;20.60;99.90;;;;;;5031051;28;20128;-81
2022/07/02 08:19:55;;;;;;;5.55;1.40;;;20.50;99.90;;;;;;5030254;28;20041;-81
2022/07/02 08:22:21;;;;;;;4.10;1.42;;;20.60;99.90;;;;;;5030268;28;20048;-80
2022/07/02 08:24:47;;;;;;;3.50;1.30;;;20.70;99.90;;;;;;5030102;28;20042;-81
2022/07/02 08:27:12;;;;;;;3.83;1.38;;;20.80;99.90;;;;;;5031414;28;20037;-80
2022/07/02 08:29:38;;;;;;;4.85;1.10;;;20.80;99.90;;;;;;5031244;28;20045;-81
2022/07/02 08:32:05;;;;;;;4.95;1.35;;;20.80;99.90;;;;;;5031101;28;20099;-79
2022/07/02 08:34:31;;;;;;;2.72;1.20;;;20.80;99.90;;;;;;5030042;28;20132;-80
2022/07/02 08:36:56;;;;;;;6.07;1.55;;;21.00;99.90;;;;;;5014788;28;20045;-81
2022/07/02 08:39:22;;;;;;;3.25;1.30;;;21.10;99.90;;;;;;5031245;28;20063;-81
2022/07/02 08:41:48;;;;;;;2.58;1.02;;;21.20;99.90;;;;;;5030840;28;20030;-80
2022/07/02 08:44:16;;;;;;;2.30;0.95;;;21.20;99.90;;;;;;5030457;28;20038;-81
2022/07/02 08:46:42;;;;;;;3.35;1.10;;;21.10;99.90;;;;;;5030824;28;20149;-80
2022/07/02 08:49:08;;;;;;;4.60;1.10;;;21.00;99.90;;;;;;5033416;28;20057;-81
2022/07/02 08:51:34;;;;;;;4.80;0.98;;;21.00;99.90;;;;;;5050702;28;20045;-81
2022/07/02 08:54:00;;;;;;;3.70;1.10;;;20.90;99.80;;;;;;5050587;28;20037;-81
2022/07/02 08:56:29;;;;;;;3.28;0.93;;;21.00;99.90;;;;;;5055205;28;20041;-81
2022/07/02 08:58:56;;;;;;;3.00;0.95;;;21.00;99.70;;;;;;5040469;28;20172;-81
2022/07/02 09:01:22;;;;;;;3.00;0.60;;;21.00;98.70;;;;;;5034802;28;20128;-80
2022/07/02 09:03:50;;;;;;;2.33;0.60;;;21.10;98.40;;;;;;5051117;28;20040;-81
2022/07/02 09:06:18;;;;;;;2.42;0.70;;;21.00;98.10;;;;;;5034784;28;20128;-80
2022/07/02 09:08:44;;;;;;;1.42;0.60;;;21.10;98.20;;;;;;5034936;28;20045;-82
2022/07/02 09:11:10;;;;;;;3.63;0.80;;;21.20;97.80;;;;;;5035025;28;20585;-80
2022/07/02 09:13:37;;;;;;;2.63;0.50;;;21.20;98.10;;;;;;5035294;28;20376;-81
2022/07/02 09:16:05;;;;;;;0.90;0.60;;;21.30;98.00;;;;;;5034095;28;20053;-81
2022/07/02 09:18:31;;;;;;;2.38;0.75;;;21.20;97.60;;;;;;5035198;28;20046;-80
2022/07/02 09:20:57;;;;;;;1.42;0.60;;;21.40;98.00;;;;;;5037621;28;20094;-80
2022/07/02 09:23:23;;;;;;;1.77;0.63;;;21.50;97.70;;;;;;5049795;28;20045;-79
2022/07/02 09:25:52;;;;;;;2.63;0.60;;;21.40;97.60;;;;;;5048879;28;20034;-81
2022/07/02 09:28:18;;;;;;;2.10;0.60;;;21.50;97.50;;;;;;5034268;28;20048;-80
2022/07/02 09:30:44;;;;;;;1.80;0.77;;;21.60;97.30;;;;;;5033795;28;20037;-80
2022/07/02 09:33:35;;;;;;;2.65;0.65;;;21.60;96.00;;;;;;5036014;28;20038;-81
2022/07/02 09:36:12;;;;;;;3.30;0.70;;;21.60;96.50;;;;;;5043990;28;20052;-80
2022/07/02 09:38:45;;;;;;;0.80;0.50;;;21.70;96.70;;;;;;5051445;28;20384;-80
2022/07/02 09:41:13;;;;;;;2.72;0.60;;;21.80;96.80;;;;;;5034077;28;20045;-81
2022/07/02 09:43:40;;;;;;;2.17;0.70;;;21.80;97.00;;;;;;5034061;28;20044;-83
2022/07/02 09:46:19;;;;;;;3.03;0.65;;;21.80;96.80;;;;;;5033995;28;20494;-81
2022/07/02 09:48:47;;;;;;;1.13;0.80;;;21.80;94.80;;;;;;5032852;28;20136;-81
2022/07/02 09:51:14;;;;;;;2.40;0.60;;;21.80;96.00;;;;;;5034366;28;20037;-80
2022/07/02 09:53:53;;;;;;;4.65;0.68;;;21.90;96.20;;;;;;5033855;28;20045;-80
2022/07/02 09:56:21;;;;;;;3.05;0.85;;;22.00;95.80;;;;;;5034354;28;20072;-81
2022/07/02 09:58:46;;;;;;;2.47;0.80;;;22.10;96.40;;;;;;5034049;28;20049;-80
2022/07/02 10:01:12;;;;;;;1.60;0.63;;;22.00;96.30;;;;;;5033868;28;20547;-80
2022/07/02 10:03:52;;;;;;;1.25;0.60;;;21.90;95.70;;;;;;5033779;28;20415;-81
2022/07/02 10:06:19;;;;;;;1.42;0.55;;;22.00;95.80;;;;;;5033928;28;20171;-81
2022/07/02 10:08:45;;;;;;;1.27;0.52;;;22.00;95.80;;;;;;5017021;28;20045;-80
2022/07/02 10:11:12;;;;;;;3.15;0.85;;;22.10;95.90;;;;;;5034404;28;20057;-81
2022/07/02 10:13:39;;;;;;;2.97;0.70;;;22.30;95.60;;;;;;5036758;28;20056;-83
2022/07/02 10:16:13;;;;;;;2.25;0.90;;;22.30;95.10;;;;;;5060673;28;20037;-82
2022/07/02 10:18:41;;;;;;;0.93;0.47;;;22.40;94.20;;;;;;5052292;28;20037;-82
2022/07/02 10:21:08;;;;;;;3.40;0.60;;;22.40;94.50;;;;;;5051676;28;20463;-82
2022/07/02 10:23:34;;;;;;;3.00;0.73;;;22.60;94.80;;;;;;5050012;28;20108;-82
2022/07/02 10:26:00;;;;;;;2.15;0.80;;;22.70;94.80;;;;;;5031588;28;20040;-83
2022/07/02 10:28:26;;;;;;;2.20;0.50;;;22.70;94.90;;;;;;5028763;28;20037;-82
2022/07/02 10:30:54;;;;;;;2.42;0.60;;;23.00;95.20;;;;;;5049310;28;20041;-82
2022/07/02 10:33:26;;;;;;;1.40;0.70;;;23.00;94.90;;;;;;5021386;28;20091;-83
2022/07/02 10:35:53;;;;;;;2.53;0.75;;;23.00;94.80;;;;;;5041240;28;20087;-82
2022/07/02 10:38:31;;;;;;;5.25;0.82;;;23.00;95.10;;;;;;5049367;28;20045;-83
2022/07/02 10:40:57;;;;;;;4.38;0.90;;;23.10;94.70;;;;;;5045728;28;20510;-82
2022/07/02 10:43:26;;;;;;;3.30;0.70;;;23.10;94.80;;;;;;5034102;28;20041;-82
2022/07/02 10:46:04;;;;;;;1.40;0.52;;;23.30;94.40;;;;;;5047215;28;20041;-81
2022/07/02 10:48:33;;;;;;;2.55;0.57;;;23.50;94.80;;;;;;5042750;28;20406;-82
2022/07/02 10:50:59;;;;;;;1.90;0.40;;;23.40;93.90;;;;;;5044337;28;20049;-82
2022/07/02 10:53:27;;;;;;;2.17;0.60;;;23.50;93.70;;;;;;5042743;28;20380;-82
2022/07/02 10:55:58;;;;;;;2.15;0.60;;;23.60;94.10;;;;;;5048860;28;20040;-82
2022/07/02 10:58:30;;;;;;;1.60;0.40;;;23.50;93.80;;;;;;5043074;28;20045;-82
2022/07/02 11:00:56;;;;;;;1.45;0.60;;;23.30;93.50;;;;;;5045914;28;20395;-81
2022/07/02 11:03:26;;;;;;;2.63;0.60;;;23.60;93.60;;;;;;5043027;28;20054;-81
2022/07/02 11:06:04;;;;;;;2.00;0.50;;;23.70;92.90;;;;;;5042665;28;20041;-81
2022/07/02 11:08:44;;;;;;;4.03;0.70;;;23.80;92.10;;;;;;5047533;28;20041;-82
2022/07/02 11:11:12;;;;;;;1.10;0.45;;;23.90;93.30;;;;;;5041036;28;20037;-81
2022/07/02 11:13:47;;;;;;;3.47;0.70;;;24.20;93.30;;;;;;5033735;28;20041;-82
2022/07/02 11:16:25;;;;;;;3.10;0.60;;;24.30;92.10;;;;;;5033657;28;20101;-82
2022/07/02 11:18:52;;;;;;;2.65;0.55;;;24.50;92.70;;;;;;5033449;28;20124;-83
2022/07/02 11:21:19;;;;;;;1.75;0.50;;;24.70;92.10;;;;;;5048097;28;20036;-83
2022/07/02 11:23:45;;;;;;;1.83;0.50;;;24.70;92.00;;;;;;5042824;28;20044;-83
2022/07/02 11:26:16;;;;;;;2.35;0.50;;;24.70;91.70;;;;;;5033990;28;20120;-81
2022/07/02 11:28:43;;;;;;;2.25;0.50;;;24.90;92.20;;;;;;5047686;28;20094;-81
2022/07/02 11:31:10;;;;;;;1.98;0.75;;;25.10;91.80;;;;;;5052148;28;20048;-81
2022/07/02 11:33:41;;;;;;;1.92;0.55;;;25.20;91.20;;;;;;5051563;28;20076;-80
2022/07/02 11:36:06;;;;;;;2.88;0.60;;;25.10;90.40;;;;;;5032628;28;20115;-81
2022/07/02 11:38:39;;;;;;;2.10;0.57;;;25.10;90.60;;;;;;5032701;28;20503;-81
2022/07/02 11:41:15;;;;;;;2.58;0.68;;;25.40;89.20;;;;;;5032607;28;20046;-81
2022/07/02 11:43:41;;;;;;;1.38;0.47;;;25.60;89.30;;;;;;5047387;28;20037;-82
2022/07/02 11:46:06;;;;;;;2.42;0.40;;;26.10;90.20;;;;;;5051961;28;20045;-83
2022/07/02 11:48:32;;;;;;;2.33;0.47;;;26.20;89.00;;;;;;5042926;28;20041;-84
2022/07/02 11:50:59;;;;;;;2.75;0.60;;;26.20;89.80;;;;;;5029758;28;20041;-82
2022/07/02 11:53:25;;;;;;;2.00;0.50;;;26.10;88.30;;;;;;5031145;28;20056;-82
2022/07/02 11:55:51;;;;;;;1.50;0.52;;;26.30;88.60;;;;;;5032110;28;20045;-82
2022/07/02 11:58:18;;;;;;;1.85;0.50;;;26.30;86.30;;;;;;5035491;28;20045;-83
2022/07/02 12:00:44;;;;;;;2.05;0.50;;;26.40;87.40;;;;;;5032951;28;20045;-82
2022/07/02 12:03:11;;;;;;;3.10;0.50;;;26.30;87.00;;;;;;5031487;28;20044;-83
2022/07/02 12:05:48;;;;;;;2.45;0.85;;;26.50;87.50;;;;;;5040588;28;20513;-83
2022/07/02 12:08:17;;;;;;;2.70;0.57;;;26.30;87.30;;;;;;5038383;28;20040;-83
2022/07/02 12:10:42;;;;;;;1.63;0.60;;;26.40;86.80;;;;;;5028270;28;20080;-81
2022/07/02 12:13:09;;;;;;;1.58;0.40;;;26.30;86.90;;;;;;5042712;28;20120;-84
2022/07/02 12:15:46;;;;;;;1.83;0.40;;;26.10;87.60;;;;;;5038180;28;20533;-82
2022/07/02 12:18:20;;;;;;;1.30;0.40;;;26.20;86.80;;;;;;5039275;28;20081;-83
2022/07/02 12:20:46;;;;;;;2.65;0.40;;;26.00;87.30;;;;;;5040950;28;20029;-82
2022/07/02 12:23:12;;;;;;;3.30;0.60;;;25.90;87.30;;;;;;5043767;28;21277;-81
2022/07/02 12:25:56;;;;;;;3.00;0.65;;;25.90;87.10;;;;;;5043549;28;20036;-81
2022/07/02 12:31:06;;;;;;;1.40;0.35;;;25.40;85.90;;;;;;5048761;28;19917;-81
2022/07/02 12:33:35;;;;;;;2.63;0.63;;;25.40;87.90;;;;;;5056327;28;20482;-82
2022/07/02 12:36:04;;;;;;;1.60;0.43;;;25.00;87.40;;;;;;5046482;28;20418;-81
2022/07/02 12:38:40;;;;;;;1.70;0.40;;;24.80;88.80;;;;;;5050780;28;20123;-82
2022/07/02 12:41:06;;;;;;;2.88;0.57;;;24.80;89.10;;;;;;5045518;28;20047;-81
2022/07/02 12:43:32;;;;;;;2.22;0.55;;;24.60;89.50;;;;;;5042794;28;20406;-80
2022/07/02 12:46:05;;;;;;;2.13;0.55;;;24.50;88.70;;;;;;5044737;28;20153;-81
2022/07/02 12:48:31;;;;;;;2.72;0.60;;;24.70;89.90;;;;;;5051027;28;20096;-81
2022/07/02 12:50:58;;;;;;;2.10;0.70;;;25.10;90.20;;;;;;5043008;28;20045;-81
2022/07/02 12:53:24;;;;;;;2.03;0.50;;;25.00;89.00;;;;;;5049039;28;20048;-81
2022/07/02 12:56:02;;;;;;;3.25;0.60;;;25.20;89.90;;;;;;5042571;28;20052;-81
2022/07/02 12:58:29;;;;;;;4.53;0.70;;;25.30;90.10;;;;;;5042767;28;20138;-82